sensor_id;sensor_type;location;lat;lon;timestamp;temperature;humidity
3023;DHT22;1521;53.584;9.938;2023-03-31T00:01:47;10.70;99.90
3023;DHT22;1521;53.584;9.938;2023-03-31T00:04:13;10.70;99.90
3023;DHT22;1521;53.584;9.938;2023-03-31T00:06:40;10.70;99.90
3023;DHT22;1521;53.584;9.938;2023-03-31T00:09:08;10.70;99.90
3023;DHT22;1521;53.584;9.938;2023-03-31T00:11:34;10.70;99.90
3023;DHT22;1521;53.584;9.938;2023-03-31T00:14:00;10.70;99.90
3023;DHT22;1521;53.584;9.938;2023-03-31T00:16:26;10.70;99.90
3023;DHT22;1521;53.584;9.938;2023-03-31T00:18:52;10.70;99.90
3023;DHT22;1521;53.584;9.938;2023-03-31T00:21:24;10.70;99.90
3023;DHT22;1521;53.584;9.938;2023-03-31T00:23:58;10.70;99.90
3023;DHT22;1521;53.584;9.938;2023-03-31T00:26:24;10.70;99.90
3023;DHT22;1521;53.584;9.938;2023-03-31T00:28:51;10.70;99.90
3023;DHT22;1521;53.584;9.938;2023-03-31T00:31:17;10.70;99.90
3023;DHT22;1521;53.584;9.938;2023-03-31T00:33:43;10.70;99.90
3023;DHT22;1521;53.584;9.938;2023-03-31T00:36:09;10.60;99.90
3023;DHT22;1521;53.584;9.938;2023-03-31T00:38:35;10.60;99.90
3023;DHT22;1521;53.584;9.938;2023-03-31T00:41:01;10.60;99.90
3023;DHT22;1521;53.584;9.938;2023-03-31T00:43:34;10.60;99.90
3023;DHT22;1521;53.584;9.938;2023-03-31T00:46:21;10.60;99.90
3023;DHT22;1521;53.584;9.938;2023-03-31T00:48:54;10.50;99.90
3023;DHT22;1521;53.584;9.938;2023-03-31T00:51:25;10.60;99.90
3023;DHT22;1521;53.584;9.938;2023-03-31T00:53:56;10.60;97.40
3023;DHT22;1521;53.584;9.938;2023-03-31T00:56:31;10.60;82.90
3023;DHT22;1521;53.584;9.938;2023-03-31T00:59:01;10.60;56.10
3023;DHT22;1521;53.584;9.938;2023-03-31T01:01:28;10.60;40.00
3023;DHT22;1521;53.584;9.938;2023-03-31T01:03:55;10.50;26.80
3023;DHT22;1521;53.584;9.938;2023-03-31T01:06:22;10.50;22.60
3023;DHT22;1521;53.584;9.938;2023-03-31T01:08:50;10.50;22.30
3023;DHT22;1521;53.584;9.938;2023-03-31T01:11:19;10.50;18.50
3023;DHT22;1521;53.584;9.938;2023-03-31T01:13:45;10.50;13.50
3023;DHT22;1521;53.584;9.938;2023-03-31T01:16:15;10.50;8.10
3023;DHT22;1521;53.584;9.938;2023-03-31T01:18:42;10.50;1.00
3023;DHT22;1521;53.584;9.938;2023-03-31T01:24:08;10.50;1.00
3023;DHT22;1521;53.584;9.938;2023-03-31T01:46:40;10.70;1.00
3023;DHT22;1521;53.584;9.938;2023-03-31T01:49:23;10.80;1.00
3023;DHT22;1521;53.584;9.938;2023-03-31T01:52:20;10.80;1.00
3023;DHT22;1521;53.584;9.938;2023-03-31T01:55:11;10.80;1.00
3023;DHT22;1521;53.584;9.938;2023-03-31T02:00:35;10.80;1.00
3023;DHT22;1521;53.584;9.938;2023-03-31T02:03:13;10.80;1.00
3023;DHT22;1521;53.584;9.938;2023-03-31T02:05:46;10.80;1.00
3023;DHT22;1521;53.584;9.938;2023-03-31T02:08:18;10.70;1.00
3023;DHT22;1521;53.584;9.938;2023-03-31T02:10:46;10.80;1.00
3023;DHT22;1521;53.584;9.938;2023-03-31T02:13:13;10.70;1.00
3023;DHT22;1521;53.584;9.938;2023-03-31T02:15:42;10.60;1.00
3023;DHT22;1521;53.584;9.938;2023-03-31T02:18:14;10.60;1.00
3023;DHT22;1521;53.584;9.938;2023-03-31T02:20:45;10.70;1.00
3023;DHT22;1521;53.584;9.938;2023-03-31T02:23:13;10.70;1.00
3023;DHT22;1521;53.584;9.938;2023-03-31T02:25:46;10.60;1.00
3023;DHT22;1521;53.584;9.938;2023-03-31T02:28:17;10.60;1.00
3023;DHT22;1521;53.584;9.938;2023-03-31T02:33:19;10.50;1.00
3023;DHT22;1521;53.584;9.938;2023-03-31T02:35:44;10.50;1.00
3023;DHT22;1521;53.584;9.938;2023-03-31T02:38:10;10.50;1.00
3023;DHT22;1521;53.584;9.938;2023-03-31T02:40:36;10.50;1.00
3023;DHT22;1521;53.584;9.938;2023-03-31T02:43:02;10.50;1.00
3023;DHT22;1521;53.584;9.938;2023-03-31T02:45:47;10.50;1.00
3023;DHT22;1521;53.584;9.938;2023-03-31T02:48:25;10.50;1.00
3023;DHT22;1521;53.584;9.938;2023-03-31T03:01:44;10.40;1.00
3023;DHT22;1521;53.584;9.938;2023-03-31T03:15:33;10.30;1.00
3023;DHT22;1521;53.584;9.938;2023-03-31T03:18:00;10.30;1.00
3023;DHT22;1521;53.584;9.938;2023-03-31T03:20:26;10.30;1.00
3023;DHT22;1521;53.584;9.938;2023-03-31T03:22:51;10.30;1.00
3023;DHT22;1521;53.584;9.938;2023-03-31T03:25:17;10.30;1.00
3023;DHT22;1521;53.584;9.938;2023-03-31T03:27:44;10.30;1.00
3023;DHT22;1521;53.584;9.938;2023-03-31T03:30:11;10.30;1.00
3023;DHT22;1521;53.584;9.938;2023-03-31T03:32:37;10.20;1.00
3023;DHT22;1521;53.584;9.938;2023-03-31T03:35:04;10.20;1.00
3023;DHT22;1521;53.584;9.938;2023-03-31T03:37:30;10.10;1.00
3023;DHT22;1521;53.584;9.938;2023-03-31T03:39:56;10.10;1.00
3023;DHT22;1521;53.584;9.938;2023-03-31T03:42:22;10.10;1.00
3023;DHT22;1521;53.584;9.938;2023-03-31T03:44:48;10.10;1.00
3023;DHT22;1521;53.584;9.938;2023-03-31T03:47:14;10.10;8.90
3023;DHT22;1521;53.584;9.938;2023-03-31T03:49:39;10.10;16.90
3023;DHT22;1521;53.584;9.938;2023-03-31T03:52:05;10.20;10.90
3023;DHT22;1521;53.584;9.938;2023-03-31T03:54:31;10.20;1.00
3023;DHT22;1521;53.584;9.938;2023-03-31T03:56:57;10.20;1.00
3023;DHT22;1521;53.584;9.938;2023-03-31T03:59:22;10.30;1.00
3023;DHT22;1521;53.584;9.938;2023-03-31T04:01:48;10.20;1.00
3023;DHT22;1521;53.584;9.938;2023-03-31T04:04:13;10.20;1.00
3023;DHT22;1521;53.584;9.938;2023-03-31T04:06:39;10.20;1.00
3023;DHT22;1521;53.584;9.938;2023-03-31T04:09:05;10.30;1.00
3023;DHT22;1521;53.584;9.938;2023-03-31T04:11:31;10.30;1.00
3023;DHT22;1521;53.584;9.938;2023-03-31T04:13:56;10.30;1.00
3023;DHT22;1521;53.584;9.938;2023-03-31T04:16:22;10.30;1.00
3023;DHT22;1521;53.584;9.938;2023-03-31T04:18:50;10.40;1.00
3023;DHT22;1521;53.584;9.938;2023-03-31T04:21:17;10.30;1.00
3023;DHT22;1521;53.584;9.938;2023-03-31T04:23:53;10.30;1.00
3023;DHT22;1521;53.584;9.938;2023-03-31T04:26:33;10.30;1.00
3023;DHT22;1521;53.584;9.938;2023-03-31T04:29:12;10.30;1.00
3023;DHT22;1521;53.584;9.938;2023-03-31T04:31:38;10.30;1.00
3023;DHT22;1521;53.584;9.938;2023-03-31T04:34:08;10.40;1.00
3023;DHT22;1521;53.584;9.938;2023-03-31T04:36:41;10.40;1.00
3023;DHT22;1521;53.584;9.938;2023-03-31T04:39:08;10.40;1.00
3023;DHT22;1521;53.584;9.938;2023-03-31T04:41:36;10.50;1.00
3023;DHT22;1521;53.584;9.938;2023-03-31T04:44:02;10.40;1.00
3023;DHT22;1521;53.584;9.938;2023-03-31T04:46:27;10.40;1.00
3023;DHT22;1521;53.584;9.938;2023-03-31T04:48:53;10.40;1.00
3023;DHT22;1521;53.584;9.938;2023-03-31T04:51:18;10.40;1.00
3023;DHT22;1521;53.584;9.938;2023-03-31T04:53:45;10.40;1.00
3023;DHT22;1521;53.584;9.938;2023-03-31T04:56:11;10.40;1.00
3023;DHT22;1521;53.584;9.938;2023-03-31T04:58:37;10.50;1.00
3023;DHT22;1521;53.584;9.938;2023-03-31T05:01:03;10.50;1.00
3023;DHT22;1521;53.584;9.938;2023-03-31T05:03:32;10.50;1.00
3023;DHT22;1521;53.584;9.938;2023-03-31T05:05:58;10.50;1.00
3023;DHT22;1521;53.584;9.938;2023-03-31T05:08:24;10.50;1.00
3023;DHT22;1521;53.584;9.938;2023-03-31T05:10:51;10.60;1.00
3023;DHT22;1521;53.584;9.938;2023-03-31T05:13:17;10.50;1.00
3023;DHT22;1521;53.584;9.938;2023-03-31T05:15:42;10.50;1.00
3023;DHT22;1521;53.584;9.938;2023-03-31T05:18:09;10.50;1.00
3023;DHT22;1521;53.584;9.938;2023-03-31T05:20:35;10.50;1.00
3023;DHT22;1521;53.584;9.938;2023-03-31T05:23:00;10.60;1.00
3023;DHT22;1521;53.584;9.938;2023-03-31T05:25:26;10.60;1.00
3023;DHT22;1521;53.584;9.938;2023-03-31T05:27:57;10.60;1.00
3023;DHT22;1521;53.584;9.938;2023-03-31T05:30:24;10.50;1.00
3023;DHT22;1521;53.584;9.938;2023-03-31T05:32:51;10.50;1.00
3023;DHT22;1521;53.584;9.938;2023-03-31T05:35:16;10.50;1.00
3023;DHT22;1521;53.584;9.938;2023-03-31T05:37:42;10.50;1.00
3023;DHT22;1521;53.584;9.938;2023-03-31T05:40:08;10.50;1.00
3023;DHT22;1521;53.584;9.938;2023-03-31T05:42:34;10.50;1.00
3023;DHT22;1521;53.584;9.938;2023-03-31T05:45:00;10.60;1.00
3023;DHT22;1521;53.584;9.938;2023-03-31T05:47:26;10.60;1.00
3023;DHT22;1521;53.584;9.938;2023-03-31T05:49:51;10.60;1.00
3023;DHT22;1521;53.584;9.938;2023-03-31T05:52:17;10.70;1.00
3023;DHT22;1521;53.584;9.938;2023-03-31T05:54:43;10.70;1.00
3023;DHT22;1521;53.584;9.938;2023-03-31T05:57:09;10.60;1.00
3023;DHT22;1521;53.584;9.938;2023-03-31T05:59:35;10.70;1.00
3023;DHT22;1521;53.584;9.938;2023-03-31T06:02:04;10.70;1.00
3023;DHT22;1521;53.584;9.938;2023-03-31T06:04:29;10.70;1.00
3023;DHT22;1521;53.584;9.938;2023-03-31T06:06:57;10.70;1.00
3023;DHT22;1521;53.584;9.938;2023-03-31T06:09:23;10.80;1.00
3023;DHT22;1521;53.584;9.938;2023-03-31T06:11:49;10.80;1.00
3023;DHT22;1521;53.584;9.938;2023-03-31T06:14:14;10.80;1.00
3023;DHT22;1521;53.584;9.938;2023-03-31T06:16:40;10.90;99.90
3023;DHT22;1521;53.584;9.938;2023-03-31T06:19:05;10.90;99.90
3023;DHT22;1521;53.584;9.938;2023-03-31T06:21:31;10.90;99.90
3023;DHT22;1521;53.584;9.938;2023-03-31T06:23:57;11.00;99.90
3023;DHT22;1521;53.584;9.938;2023-03-31T06:26:24;11.00;99.90
3023;DHT22;1521;53.584;9.938;2023-03-31T06:28:50;11.10;99.90
3023;DHT22;1521;53.584;9.938;2023-03-31T06:31:18;11.10;99.90
3023;DHT22;1521;53.584;9.938;2023-03-31T06:33:45;11.10;99.90
3023;DHT22;1521;53.584;9.938;2023-03-31T06:36:13;11.10;99.90
3023;DHT22;1521;53.584;9.938;2023-03-31T06:38:39;11.10;99.90
3023;DHT22;1521;53.584;9.938;2023-03-31T06:41:06;11.10;99.90
3023;DHT22;1521;53.584;9.938;2023-03-31T06:43:32;11.20;99.90
3023;DHT22;1521;53.584;9.938;2023-03-31T06:45:58;11.20;99.90
3023;DHT22;1521;53.584;9.938;2023-03-31T06:48:25;11.20;99.90
3023;DHT22;1521;53.584;9.938;2023-03-31T06:50:52;11.20;99.90
3023;DHT22;1521;53.584;9.938;2023-03-31T06:53:19;11.20;93.80
3023;DHT22;1521;53.584;9.938;2023-03-31T06:55:44;11.40;52.80
3023;DHT22;1521;53.584;9.938;2023-03-31T06:58:10;11.50;55.30
3023;DHT22;1521;53.584;9.938;2023-03-31T07:00:36;11.50;1.00
3023;DHT22;1521;53.584;9.938;2023-03-31T07:03:03;11.50;1.00
3023;DHT22;1521;53.584;9.938;2023-03-31T07:05:29;11.50;1.00
3023;DHT22;1521;53.584;9.938;2023-03-31T07:07:56;11.60;1.00
3023;DHT22;1521;53.584;9.938;2023-03-31T07:10:23;11.60;1.00
3023;DHT22;1521;53.584;9.938;2023-03-31T07:12:49;11.60;99.90
3023;DHT22;1521;53.584;9.938;2023-03-31T07:15:15;11.70;99.90
3023;DHT22;1521;53.584;9.938;2023-03-31T07:17:41;11.70;99.90
3023;DHT22;1521;53.584;9.938;2023-03-31T07:20:08;11.70;99.90
3023;DHT22;1521;53.584;9.938;2023-03-31T07:22:37;11.80;99.90
3023;DHT22;1521;53.584;9.938;2023-03-31T07:25:04;11.80;99.90
3023;DHT22;1521;53.584;9.938;2023-03-31T07:27:29;11.90;99.90
3023;DHT22;1521;53.584;9.938;2023-03-31T07:29:55;12.00;1.00
3023;DHT22;1521;53.584;9.938;2023-03-31T07:32:21;12.00;99.90
3023;DHT22;1521;53.584;9.938;2023-03-31T07:34:47;12.00;1.00
3023;DHT22;1521;53.584;9.938;2023-03-31T07:37:13;12.00;99.90
3023;DHT22;1521;53.584;9.938;2023-03-31T07:39:39;12.10;99.90
3023;DHT22;1521;53.584;9.938;2023-03-31T07:42:04;12.00;1.00
3023;DHT22;1521;53.584;9.938;2023-03-31T07:44:33;12.00;99.90
3023;DHT22;1521;53.584;9.938;2023-03-31T07:46:58;11.90;99.90
3023;DHT22;1521;53.584;9.938;2023-03-31T07:49:29;11.90;99.90
3023;DHT22;1521;53.584;9.938;2023-03-31T07:51:55;11.80;1.00
3023;DHT22;1521;53.584;9.938;2023-03-31T07:54:21;11.80;99.90
3023;DHT22;1521;53.584;9.938;2023-03-31T07:56:46;11.80;1.00
3023;DHT22;1521;53.584;9.938;2023-03-31T07:59:12;11.70;1.00
3023;DHT22;1521;53.584;9.938;2023-03-31T08:01:38;11.70;99.90
3023;DHT22;1521;53.584;9.938;2023-03-31T08:04:04;11.60;99.90
3023;DHT22;1521;53.584;9.938;2023-03-31T08:06:30;11.60;99.90
3023;DHT22;1521;53.584;9.938;2023-03-31T08:08:55;11.50;1.00
3023;DHT22;1521;53.584;9.938;2023-03-31T08:11:22;11.40;1.00
3023;DHT22;1521;53.584;9.938;2023-03-31T08:13:49;11.40;92.40
3023;DHT22;1521;53.584;9.938;2023-03-31T08:16:15;11.40;99.90
3023;DHT22;1521;53.584;9.938;2023-03-31T08:18:41;11.30;99.90
3023;DHT22;1521;53.584;9.938;2023-03-31T08:21:06;11.30;99.90
3023;DHT22;1521;53.584;9.938;2023-03-31T08:23:34;11.30;99.90
3023;DHT22;1521;53.584;9.938;2023-03-31T08:26:16;11.40;99.90
3023;DHT22;1521;53.584;9.938;2023-03-31T08:28:48;11.30;99.90
3023;DHT22;1521;53.584;9.938;2023-03-31T08:31:15;11.40;99.90
3023;DHT22;1521;53.584;9.938;2023-03-31T08:33:41;11.40;99.90
3023;DHT22;1521;53.584;9.938;2023-03-31T08:36:08;11.40;99.90
3023;DHT22;1521;53.584;9.938;2023-03-31T08:38:39;11.40;99.90
3023;DHT22;1521;53.584;9.938;2023-03-31T08:43:43;11.60;1.00
3023;DHT22;1521;53.584;9.938;2023-03-31T08:46:12;11.60;99.90
3023;DHT22;1521;53.584;9.938;2023-03-31T08:48:44;11.50;99.90
3023;DHT22;1521;53.584;9.938;2023-03-31T08:51:28;11.50;99.90
3023;DHT22;1521;53.584;9.938;2023-03-31T08:54:03;11.50;99.90
3023;DHT22;1521;53.584;9.938;2023-03-31T08:56:36;11.40;1.00
3023;DHT22;1521;53.584;9.938;2023-03-31T08:59:05;11.40;1.00
3023;DHT22;1521;53.584;9.938;2023-03-31T09:01:41;11.40;99.90
3023;DHT22;1521;53.584;9.938;2023-03-31T09:04:34;11.30;99.90
3023;DHT22;1521;53.584;9.938;2023-03-31T09:18:29;11.10;1.00
3023;DHT22;1521;53.584;9.938;2023-03-31T09:20:54;11.20;1.00
3023;DHT22;1521;53.584;9.938;2023-03-31T09:23:26;11.30;1.00
3023;DHT22;1521;53.584;9.938;2023-03-31T09:25:54;11.40;1.00
3023;DHT22;1521;53.584;9.938;2023-03-31T09:28:25;11.50;1.00
3023;DHT22;1521;53.584;9.938;2023-03-31T09:30:54;11.60;1.00
3023;DHT22;1521;53.584;9.938;2023-03-31T09:33:29;11.70;1.00
3023;DHT22;1521;53.584;9.938;2023-03-31T09:35:59;11.90;1.00
3023;DHT22;1521;53.584;9.938;2023-03-31T09:38:25;11.80;1.00
3023;DHT22;1521;53.584;9.938;2023-03-31T09:40:57;11.80;1.00
3023;DHT22;1521;53.584;9.938;2023-03-31T09:43:26;11.90;1.00
3023;DHT22;1521;53.584;9.938;2023-03-31T09:45:53;11.90;1.00
3023;DHT22;1521;53.584;9.938;2023-03-31T09:48:33;12.00;1.00
3023;DHT22;1521;53.584;9.938;2023-03-31T09:51:03;12.10;1.00
3023;DHT22;1521;53.584;9.938;2023-03-31T09:56:12;12.10;99.90
3023;DHT22;1521;53.584;9.938;2023-03-31T09:58:44;12.20;99.90
3023;DHT22;1521;53.584;9.938;2023-03-31T10:01:12;12.20;99.90
3023;DHT22;1521;53.584;9.938;2023-03-31T10:03:53;12.30;99.90
3023;DHT22;1521;53.584;9.938;2023-03-31T10:06:20;12.30;99.90
3023;DHT22;1521;53.584;9.938;2023-03-31T10:08:50;12.30;99.90
3023;DHT22;1521;53.584;9.938;2023-03-31T10:11:18;12.30;99.90
3023;DHT22;1521;53.584;9.938;2023-03-31T10:13:48;12.40;99.90
3023;DHT22;1521;53.584;9.938;2023-03-31T10:16:52;12.40;99.90
3023;DHT22;1521;53.584;9.938;2023-03-31T10:19:25;12.30;99.90
3023;DHT22;1521;53.584;9.938;2023-03-31T10:22:11;12.30;99.90
3023;DHT22;1521;53.584;9.938;2023-03-31T10:24:41;12.30;99.90
3023;DHT22;1521;53.584;9.938;2023-03-31T10:27:29;12.40;99.90
3023;DHT22;1521;53.584;9.938;2023-03-31T10:29:56;12.50;99.90
3023;DHT22;1521;53.584;9.938;2023-03-31T10:32:32;12.40;99.90
3023;DHT22;1521;53.584;9.938;2023-03-31T10:35:05;12.40;99.90
3023;DHT22;1521;53.584;9.938;2023-03-31T10:37:34;12.50;99.90
3023;DHT22;1521;53.584;9.938;2023-03-31T10:40:13;12.50;99.90
3023;DHT22;1521;53.584;9.938;2023-03-31T10:42:39;12.50;99.90
3023;DHT22;1521;53.584;9.938;2023-03-31T10:45:24;12.60;99.90
3023;DHT22;1521;53.584;9.938;2023-03-31T10:47:55;12.70;99.90
3023;DHT22;1521;53.584;9.938;2023-03-31T10:50:33;12.80;99.90
3023;DHT22;1521;53.584;9.938;2023-03-31T10:53:05;12.90;99.90
3023;DHT22;1521;53.584;9.938;2023-03-31T10:55:41;13.00;99.90
3023;DHT22;1521;53.584;9.938;2023-03-31T10:58:22;13.00;1.00
3023;DHT22;1521;53.584;9.938;2023-03-31T11:14:32;12.70;1.00
3023;DHT22;1521;53.584;9.938;2023-03-31T11:17:20;12.70;15.80
3023;DHT22;1521;53.584;9.938;2023-03-31T11:23:18;12.90;1.00
3023;DHT22;1521;53.584;9.938;2023-03-31T11:25:34;12.90;1.00
3023;DHT22;1521;53.584;9.938;2023-03-31T11:36:46;12.70;1.00
3023;DHT22;1521;53.584;9.938;2023-03-31T11:42:20;12.60;1.00
3023;DHT22;1521;53.584;9.938;2023-03-31T11:44:51;12.50;1.00
3023;DHT22;1521;53.584;9.938;2023-03-31T11:47:26;12.40;11.20
3023;DHT22;1521;53.584;9.938;2023-03-31T11:49:59;12.30;25.90
3023;DHT22;1521;53.584;9.938;2023-03-31T11:52:32;12.10;99.90
3023;DHT22;1521;53.584;9.938;2023-03-31T12:00:42;11.90;99.90
3023;DHT22;1521;53.584;9.938;2023-03-31T12:03:30;11.80;99.90
3023;DHT22;1521;53.584;9.938;2023-03-31T12:06:03;11.70;99.90
3023;DHT22;1521;53.584;9.938;2023-03-31T12:11:55;11.50;1.00
3023;DHT22;1521;53.584;9.938;2023-03-31T12:14:42;11.50;1.00
3023;DHT22;1521;53.584;9.938;2023-03-31T12:17:18;11.50;1.00
3023;DHT22;1521;53.584;9.938;2023-03-31T12:19:51;11.40;1.00
3023;DHT22;1521;53.584;9.938;2023-03-31T12:22:23;11.40;1.00
3023;DHT22;1521;53.584;9.938;2023-03-31T12:24:50;11.40;1.00
3023;DHT22;1521;53.584;9.938;2023-03-31T12:27:37;11.30;1.00
3023;DHT22;1521;53.584;9.938;2023-03-31T12:30:23;11.30;1.00
3023;DHT22;1521;53.584;9.938;2023-03-31T12:32:59;11.30;1.00
3023;DHT22;1521;53.584;9.938;2023-03-31T12:39:01;11.30;1.00
3023;DHT22;1521;53.584;9.938;2023-03-31T12:41:39;11.30;1.00
3023;DHT22;1521;53.584;9.938;2023-03-31T12:52:17;11.40;1.00
3023;DHT22;1521;53.584;9.938;2023-03-31T12:55:06;11.50;1.00
3023;DHT22;1521;53.584;9.938;2023-03-31T12:57:35;11.60;1.00
3023;DHT22;1521;53.584;9.938;2023-03-31T13:02:37;11.90;1.00
3023;DHT22;1521;53.584;9.938;2023-03-31T13:08:09;11.90;1.00
3023;DHT22;1521;53.584;9.938;2023-03-31T13:10:56;12.10;1.00
3023;DHT22;1521;53.584;9.938;2023-03-31T13:13:23;12.30;1.00
3023;DHT22;1521;53.584;9.938;2023-03-31T13:15:54;12.60;1.00
3023;DHT22;1521;53.584;9.938;2023-03-31T13:18:21;12.70;1.00
3023;DHT22;1521;53.584;9.938;2023-03-31T13:21:01;12.80;1.00
3023;DHT22;1521;53.584;9.938;2023-03-31T13:23:33;12.80;99.90
3023;DHT22;1521;53.584;9.938;2023-03-31T13:26:00;12.90;99.90
3023;DHT22;1521;53.584;9.938;2023-03-31T13:31:04;13.00;99.90
3023;DHT22;1521;53.584;9.938;2023-03-31T13:33:44;12.90;99.90
3023;DHT22;1521;53.584;9.938;2023-03-31T13:44:48;12.90;99.90
3023;DHT22;1521;53.584;9.938;2023-03-31T14:01:20;13.10;1.00
3023;DHT22;1521;53.584;9.938;2023-03-31T14:04:05;13.10;1.00
3023;DHT22;1521;53.584;9.938;2023-03-31T14:06:36;13.30;1.00
3023;DHT22;1521;53.584;9.938;2023-03-31T14:09:09;13.60;99.90
3023;DHT22;1521;53.584;9.938;2023-03-31T14:11:36;13.80;1.00
3023;DHT22;1521;53.584;9.938;2023-03-31T14:14:11;13.90;99.90
3023;DHT22;1521;53.584;9.938;2023-03-31T14:16:44;14.30;99.90
3023;DHT22;1521;53.584;9.938;2023-03-31T14:19:41;14.40;1.00
3023;DHT22;1521;53.584;9.938;2023-03-31T14:22:24;14.40;1.00
3023;DHT22;1521;53.584;9.938;2023-03-31T14:25:20;14.10;99.90
3023;DHT22;1521;53.584;9.938;2023-03-31T14:35:31;13.70;84.60
3023;DHT22;1521;53.584;9.938;2023-03-31T14:37:59;13.60;76.10
3023;DHT22;1521;53.584;9.938;2023-03-31T14:40:28;13.50;90.00
3023;DHT22;1521;53.584;9.938;2023-03-31T14:42:54;13.40;64.60
3023;DHT22;1521;53.584;9.938;2023-03-31T14:45:25;13.30;66.20
3023;DHT22;1521;53.584;9.938;2023-03-31T14:48:07;13.40;99.90
3023;DHT22;1521;53.584;9.938;2023-03-31T14:50:34;13.40;64.60
3023;DHT22;1521;53.584;9.938;2023-03-31T14:53:00;13.60;33.70
3023;DHT22;1521;53.584;9.938;2023-03-31T14:55:28;13.70;1.00
3023;DHT22;1521;53.584;9.938;2023-03-31T14:57:57;13.90;29.10
3023;DHT22;1521;53.584;9.938;2023-03-31T15:00:27;14.10;8.50
3023;DHT22;1521;53.584;9.938;2023-03-31T15:02:54;14.20;6.60
3023;DHT22;1521;53.584;9.938;2023-03-31T15:05:30;14.30;1.00
3023;DHT22;1521;53.584;9.938;2023-03-31T15:08:05;14.40;1.00
3023;DHT22;1521;53.584;9.938;2023-03-31T15:10:38;14.20;1.00
3023;DHT22;1521;53.584;9.938;2023-03-31T15:13:09;13.90;1.00
3023;DHT22;1521;53.584;9.938;2023-03-31T15:15:36;13.70;1.00
3023;DHT22;1521;53.584;9.938;2023-03-31T15:18:02;13.50;1.00
3023;DHT22;1521;53.584;9.938;2023-03-31T15:20:38;13.40;13.10
3023;DHT22;1521;53.584;9.938;2023-03-31T15:23:22;13.30;23.10
3023;DHT22;1521;53.584;9.938;2023-03-31T15:25:57;13.10;24.40
3023;DHT22;1521;53.584;9.938;2023-03-31T15:28:26;13.00;61.90
3023;DHT22;1521;53.584;9.938;2023-03-31T15:30:54;12.90;99.90
3023;DHT22;1521;53.584;9.938;2023-03-31T15:33:30;12.80;99.90
3023;DHT22;1521;53.584;9.938;2023-03-31T15:35:57;12.60;99.90
3023;DHT22;1521;53.584;9.938;2023-03-31T15:38:25;12.60;99.90
3023;DHT22;1521;53.584;9.938;2023-03-31T15:40:53;12.50;99.90
3023;DHT22;1521;53.584;9.938;2023-03-31T15:43:31;12.40;99.90
3023;DHT22;1521;53.584;9.938;2023-03-31T15:46:10;12.40;99.90
3023;DHT22;1521;53.584;9.938;2023-03-31T15:48:47;12.50;99.90
3023;DHT22;1521;53.584;9.938;2023-03-31T15:51:18;12.40;99.90
3023;DHT22;1521;53.584;9.938;2023-03-31T15:53:45;12.50;99.90
3023;DHT22;1521;53.584;9.938;2023-03-31T15:56:36;12.50;99.90
3023;DHT22;1521;53.584;9.938;2023-03-31T15:59:04;12.50;99.90
3023;DHT22;1521;53.584;9.938;2023-03-31T16:01:41;12.60;92.30
3023;DHT22;1521;53.584;9.938;2023-03-31T16:04:12;12.50;75.00
3023;DHT22;1521;53.584;9.938;2023-03-31T16:09:39;12.50;90.10
3023;DHT22;1521;53.584;9.938;2023-03-31T16:12:31;12.40;84.00
3023;DHT22;1521;53.584;9.938;2023-03-31T16:15:01;12.40;99.90
3023;DHT22;1521;53.584;9.938;2023-03-31T16:17:36;12.50;99.90
3023;DHT22;1521;53.584;9.938;2023-03-31T16:20:23;12.50;99.90
3023;DHT22;1521;53.584;9.938;2023-03-31T16:22:52;12.50;97.40
3023;DHT22;1521;53.584;9.938;2023-03-31T16:25:22;12.40;84.30
3023;DHT22;1521;53.584;9.938;2023-03-31T16:27:53;12.30;63.40
3023;DHT22;1521;53.584;9.938;2023-03-31T16:30:21;12.30;68.10
3023;DHT22;1521;53.584;9.938;2023-03-31T16:33:02;12.10;84.20
3023;DHT22;1521;53.584;9.938;2023-03-31T16:35:37;12.00;99.90
3023;DHT22;1521;53.584;9.938;2023-03-31T16:38:04;12.00;99.90
3023;DHT22;1521;53.584;9.938;2023-03-31T16:40:36;11.90;99.90
3023;DHT22;1521;53.584;9.938;2023-03-31T16:45:48;11.80;99.90
3023;DHT22;1521;53.584;9.938;2023-03-31T16:48:15;11.80;99.90
3023;DHT22;1521;53.584;9.938;2023-03-31T16:50:42;11.80;99.90
3023;DHT22;1521;53.584;9.938;2023-03-31T16:53:08;11.70;99.90
3023;DHT22;1521;53.584;9.938;2023-03-31T16:55:34;11.70;99.90
3023;DHT22;1521;53.584;9.938;2023-03-31T16:58:00;11.70;99.90
3023;DHT22;1521;53.584;9.938;2023-03-31T17:00:32;11.70;99.90
3023;DHT22;1521;53.584;9.938;2023-03-31T17:03:02;11.70;99.90
3023;DHT22;1521;53.584;9.938;2023-03-31T17:05:28;11.60;99.90
3023;DHT22;1521;53.584;9.938;2023-03-31T17:07:56;11.60;1.00
3023;DHT22;1521;53.584;9.938;2023-03-31T17:10:22;11.50;1.00
3023;DHT22;1521;53.584;9.938;2023-03-31T17:12:48;11.50;1.00
3023;DHT22;1521;53.584;9.938;2023-03-31T17:15:13;11.50;1.00
3023;DHT22;1521;53.584;9.938;2023-03-31T17:17:39;11.50;1.00
3023;DHT22;1521;53.584;9.938;2023-03-31T17:20:05;11.50;1.00
3023;DHT22;1521;53.584;9.938;2023-03-31T17:22:32;11.40;1.00
3023;DHT22;1521;53.584;9.938;2023-03-31T17:24:58;11.40;1.00
3023;DHT22;1521;53.584;9.938;2023-03-31T17:27:25;11.40;27.10
3023;DHT22;1521;53.584;9.938;2023-03-31T17:29:51;11.40;86.00
3023;DHT22;1521;53.584;9.938;2023-03-31T17:32:18;11.40;99.90
3023;DHT22;1521;53.584;9.938;2023-03-31T17:34:44;11.40;99.90
3023;DHT22;1521;53.584;9.938;2023-03-31T17:37:12;11.40;99.90
3023;DHT22;1521;53.584;9.938;2023-03-31T17:39:37;11.30;99.90
3023;DHT22;1521;53.584;9.938;2023-03-31T17:42:03;11.30;99.90
3023;DHT22;1521;53.584;9.938;2023-03-31T17:44:29;11.30;1.00
3023;DHT22;1521;53.584;9.938;2023-03-31T17:46:54;11.30;1.00
3023;DHT22;1521;53.584;9.938;2023-03-31T17:49:20;11.40;1.00
3023;DHT22;1521;53.584;9.938;2023-03-31T17:51:46;11.40;1.00
3023;DHT22;1521;53.584;9.938;2023-03-31T17:54:11;11.60;99.90
3023;DHT22;1521;53.584;9.938;2023-03-31T17:56:37;11.70;99.90
3023;DHT22;1521;53.584;9.938;2023-03-31T17:59:03;11.70;99.90
3023;DHT22;1521;53.584;9.938;2023-03-31T18:01:29;11.60;99.90
3023;DHT22;1521;53.584;9.938;2023-03-31T18:03:56;11.50;99.90
3023;DHT22;1521;53.584;9.938;2023-03-31T18:06:22;11.40;1.00
3023;DHT22;1521;53.584;9.938;2023-03-31T18:08:49;11.30;1.00
3023;DHT22;1521;53.584;9.938;2023-03-31T18:11:15;11.20;99.90
3023;DHT22;1521;53.584;9.938;2023-03-31T18:13:40;11.20;1.00
3023;DHT22;1521;53.584;9.938;2023-03-31T18:16:07;11.10;99.90
3023;DHT22;1521;53.584;9.938;2023-03-31T18:18:34;11.00;56.50
3023;DHT22;1521;53.584;9.938;2023-03-31T18:21:06;11.00;1.00
3023;DHT22;1521;53.584;9.938;2023-03-31T18:23:33;11.00;1.00
3023;DHT22;1521;53.584;9.938;2023-03-31T18:25:59;10.90;1.00
3023;DHT22;1521;53.584;9.938;2023-03-31T18:28:26;10.90;5.80
3023;DHT22;1521;53.584;9.938;2023-03-31T18:30:52;10.90;99.90
3023;DHT22;1521;53.584;9.938;2023-03-31T18:33:18;10.90;26.30
3023;DHT22;1521;53.584;9.938;2023-03-31T18:35:44;10.80;1.00
3023;DHT22;1521;53.584;9.938;2023-03-31T18:38:14;10.80;99.90
3023;DHT22;1521;53.584;9.938;2023-03-31T18:40:50;10.80;99.90
3023;DHT22;1521;53.584;9.938;2023-03-31T18:43:17;10.80;1.00
3023;DHT22;1521;53.584;9.938;2023-03-31T18:45:46;10.80;96.70
3023;DHT22;1521;53.584;9.938;2023-03-31T18:48:12;10.70;99.90
3023;DHT22;1521;53.584;9.938;2023-03-31T18:50:38;10.70;1.00
3023;DHT22;1521;53.584;9.938;2023-03-31T18:53:04;10.70;99.90
3023;DHT22;1521;53.584;9.938;2023-03-31T18:55:30;10.70;1.00
3023;DHT22;1521;53.584;9.938;2023-03-31T18:57:55;10.70;1.00
3023;DHT22;1521;53.584;9.938;2023-03-31T19:00:21;10.60;23.20
3023;DHT22;1521;53.584;9.938;2023-03-31T19:02:47;10.60;99.90
3023;DHT22;1521;53.584;9.938;2023-03-31T19:05:12;10.60;99.90
3023;DHT22;1521;53.584;9.938;2023-03-31T19:07:38;10.70;99.90